Aviation Digital Data Service (ADDS)

Output produced by TAFs form (2353 UTC 18 February 2018)
found at http://www.aviationweather.gov/adds/tafs/
 
METAR text: RORS 182300Z 14005KT 9999 FEW022 20/17 Q1018
Conditions at: RORS (SHIMOJI-SHIMA IS, JP) observed 2300 UTC 18 February 2018
Temperature: 20.0°C (68°F)
Dewpoint: 17.0°C (63°F) [RH = 83%]
Pressure (altimeter): 30.06 inches Hg (1018.0 mb)
Winds: from the SE (140 degrees) at 6 MPH (5 knots; 2.6 m/s)
Visibility: 6 or more miles (10+ km)
Ceiling: at least 12,000 feet AGL
Clouds: few clouds at 2200 feet AGL
Weather: no significant weather observed at this time